Aérodrome :
LOGIN :

S'inscrire | Disclaimer

   EN    FR    IT 

 










Légende :    VFR   VFR Marginal   IFR   IFR Intensif   IFR Très Intensif
Visi : 
Plafond : 
>= 8 km
>= 3000ft
5 à 8 km
1000 à 3000 ft
1500m à 5 km
500 à 1000 ft
800 à 1500m
200 à 500 ft
< 800m
< 200 ft
Symboles :   Orages  Brouillard  Fortes neiges  Fortes précipitations  Vent > 20 kt
SIGMETs :   Divers  Orages  Givrage  Turbulence  Onde Orograph.  Cendres Volcan.






- Altitude de l'aérodrome : 277 ft
- Code IATA : JER


EGJJ - Jersey

DERNIER METAR :
  • 161050Z 15007KT 120V190 9999 FEW005 SCT008 16/14 Q1021

METARs EXPIRÉS :
  • 161020Z 14009KT 9999 FEW005 SCT007 16/14 Q1021
  • 160950Z 14008KT 9999 FEW007 SCT010 16/15 Q1021
  • 160920Z 14008KT 9999 FEW008 16/15 Q1021
  • 160850Z 15007KT 9999 FEW007 SCT014 15/15 Q1021
  • 160820Z 16006KT 9999 FEW007 SCT010 14/14 Q1020

TAF TAF EGJJ
Valide du 16 à 09h jusqu'au 16 à 18h UTC


160801Z 1609/1618 14006KT 9999 FEW005 SCT010
PROB40
TEMPO 1609/1612 BKN010
PROB30
TEMPO 1609/1611 0800 FG BKN000
ATIS : +44 1534 498 073



MET'MAP, la Météo Aéronautique d'un coup d'oeil ! - Copyright ORBIFLY Décembre 2007 - Disclaimer

ORBIFLY MET'MAP TEAM :

Programmation & Développement : Alexandra Zaïnal
Sur une idée originale de : Baudouin d'Aumeries
Assistance à la programmation : Marc-Olivier Méhu
Soutien technique & logistique : Manuel Goepfert

Contact : metmap@orbifly.com




SOURCES & CREDITS :

   NOAA